Terminal Aerodrome Forecast
Issued by NWS

Home | Current Version | Previous Version | Text Only | Print | Product List | Glossary On
Versions: 1 2 3 4 5 6 7 8 9 10 11 12 13 14 15 16 17 18 19 20 21 22 23 24 25 26 27 28 29 30
830
FTAK31 PAFA 210520
TAFATA
TAF
PATA 210520Z 2106/2206 08010KT P6SM FEW050 SCT100 BKN200
     FM211500 08012KT P6SM SCT050 BKN100 OVC200
     FM211800 08012G18KT P6SM VCSH SCT035 BKN050 OVC100
     FM212100 08012G18KT 1 1/2SM -SN BR SCT015 BKN025 OVC035=

USA.gov is the U.S. government's official web portal to all federal, state and local government web resources and services.